Locharbriggs, United Kingdom
Current Conditions -  °F | °C
As of 3:50 AM on Wednesday 28 Jan 2015 (Local Time) from EGOM Reporting Station
Moderate Rain Moderate Rain  
Wind Chill:   Ceiling: 200
Heat Index:   Visibility: 1.3mi
Dew Point:   Wind: 18mph
Humidity: 100%   Direction: 210°SSW
Pressure: 29.44"   Gusts: NA
Location:  55.1°N, 3.58°W
Report Text: EGOM 280350Z AUTO 21016KT 2200 RA OVC002/// 06/06 Q0997
Loading
Personal Weather Stations






























Interactive Weather Map New forecast layout! Learn more

10-Day Weather Forecast

Advertisements
Track Severe Weather on mobile